sensor_id;sensor_type;location;lat;lon;timestamp;temperature;humidity
21417;DHT22;10869;52.238;10.716;2022-07-29T03:02:15;16.40;87.90
21417;DHT22;10869;52.238;10.716;2022-07-29T03:04:43;16.40;88.50
21417;DHT22;10869;52.238;10.716;2022-07-29T03:07:11;16.40;88.60
21417;DHT22;10869;52.238;10.716;2022-07-29T03:13:01;16.50;88.20
21417;DHT22;10869;52.238;10.716;2022-07-29T03:15:28;16.50;88.30
21417;DHT22;10869;52.238;10.716;2022-07-29T03:17:53;16.50;87.70
21417;DHT22;10869;52.238;10.716;2022-07-29T03:20:21;16.50;87.80
21417;DHT22;10869;52.238;10.716;2022-07-29T03:22:47;16.60;87.20
21417;DHT22;10869;52.238;10.716;2022-07-29T03:25:14;16.60;87.10
21417;DHT22;10869;52.238;10.716;2022-07-29T03:27:41;16.60;87.30
21417;DHT22;10869;52.238;10.716;2022-07-29T03:30:08;16.70;87.90
21417;DHT22;10869;52.238;10.716;2022-07-29T03:32:34;16.70;87.60
21417;DHT22;10869;52.238;10.716;2022-07-29T03:35:00;16.70;87.50
21417;DHT22;10869;52.238;10.716;2022-07-29T03:37:26;16.70;87.50
21417;DHT22;10869;52.238;10.716;2022-07-29T03:39:54;16.70;87.90
21417;DHT22;10869;52.238;10.716;2022-07-29T03:42:27;16.60;87.90
21417;DHT22;10869;52.238;10.716;2022-07-29T03:44:54;16.60;87.80
21417;DHT22;10869;52.238;10.716;2022-07-29T03:47:24;16.60;89.00
21417;DHT22;10869;52.238;10.716;2022-07-29T03:49:56;16.60;88.60
21417;DHT22;10869;52.238;10.716;2022-07-29T03:52:25;16.60;89.10
21417;DHT22;10869;52.238;10.716;2022-07-29T03:54:54;16.60;88.60
21417;DHT22;10869;52.238;10.716;2022-07-29T03:57:23;16.60;88.70
21417;DHT22;10869;52.238;10.716;2022-07-29T03:59:51;16.60;88.70
21417;DHT22;10869;52.238;10.716;2022-07-29T04:02:17;16.60;89.40
21417;DHT22;10869;52.238;10.716;2022-07-29T04:04:43;16.60;89.60
21417;DHT22;10869;52.238;10.716;2022-07-29T04:07:12;16.60;90.10
21417;DHT22;10869;52.238;10.716;2022-07-29T04:09:38;16.60;90.00
21417;DHT22;10869;52.238;10.716;2022-07-29T04:12:04;16.60;90.30
21417;DHT22;10869;52.238;10.716;2022-07-29T04:14:35;16.60;90.10
21417;DHT22;10869;52.238;10.716;2022-07-29T04:17:02;16.60;89.60
21417;DHT22;10869;52.238;10.716;2022-07-29T04:19:29;16.60;89.50
21417;DHT22;10869;52.238;10.716;2022-07-29T04:21:55;16.60;89.40
21417;DHT22;10869;52.238;10.716;2022-07-29T04:24:21;16.60;89.30
21417;DHT22;10869;52.238;10.716;2022-07-29T04:26:48;16.60;89.50
21417;DHT22;10869;52.238;10.716;2022-07-29T04:29:15;16.70;90.00
21417;DHT22;10869;52.238;10.716;2022-07-29T04:32:07;16.70;89.30
21417;DHT22;10869;52.238;10.716;2022-07-29T04:34:33;16.80;89.00
21417;DHT22;10869;52.238;10.716;2022-07-29T04:36:59;16.80;88.40
21417;DHT22;10869;52.238;10.716;2022-07-29T04:39:24;16.80;88.20
21417;DHT22;10869;52.238;10.716;2022-07-29T04:41:51;16.90;88.60
21417;DHT22;10869;52.238;10.716;2022-07-29T04:44:17;16.90;88.00
21417;DHT22;10869;52.238;10.716;2022-07-29T04:50:05;17.00;88.30
21417;DHT22;10869;52.238;10.716;2022-07-29T04:55:54;17.00;88.00
21417;DHT22;10869;52.238;10.716;2022-07-29T04:58:27;17.00;89.00
21417;DHT22;10869;52.238;10.716;2022-07-29T05:00:53;16.90;88.80
21417;DHT22;10869;52.238;10.716;2022-07-29T05:03:32;16.90;88.90
21417;DHT22;10869;52.238;10.716;2022-07-29T05:06:08;17.00;88.80
21417;DHT22;10869;52.238;10.716;2022-07-29T05:08:33;17.00;89.30
21417;DHT22;10869;52.238;10.716;2022-07-29T05:10:59;17.00;89.40
21417;DHT22;10869;52.238;10.716;2022-07-29T05:13:25;17.00;90.30
21417;DHT22;10869;52.238;10.716;2022-07-29T05:15:50;17.00;90.50
21417;DHT22;10869;52.238;10.716;2022-07-29T05:18:21;17.00;90.50
21417;DHT22;10869;52.238;10.716;2022-07-29T05:21:01;17.00;91.00
21417;DHT22;10869;52.238;10.716;2022-07-29T05:23:37;17.00;90.90
21417;DHT22;10869;52.238;10.716;2022-07-29T05:26:04;16.90;91.20
21417;DHT22;10869;52.238;10.716;2022-07-29T05:28:33;16.90;92.50
21417;DHT22;10869;52.238;10.716;2022-07-29T05:31:11;16.80;91.90
21417;DHT22;10869;52.238;10.716;2022-07-29T05:33:47;16.80;92.10
21417;DHT22;10869;52.238;10.716;2022-07-29T05:36:12;16.70;92.50
21417;DHT22;10869;52.238;10.716;2022-07-29T05:38:38;16.70;92.20
21417;DHT22;10869;52.238;10.716;2022-07-29T05:41:05;16.70;92.20
21417;DHT22;10869;52.238;10.716;2022-07-29T05:43:31;16.60;92.40
21417;DHT22;10869;52.238;10.716;2022-07-29T05:45:57;16.60;92.50
21417;DHT22;10869;52.238;10.716;2022-07-29T05:48:23;16.60;92.50
21417;DHT22;10869;52.238;10.716;2022-07-29T05:50:49;16.70;92.60
21417;DHT22;10869;52.238;10.716;2022-07-29T05:53:35;16.80;92.50
21417;DHT22;10869;52.238;10.716;2022-07-29T05:56:03;17.10;92.40
21417;DHT22;10869;52.238;10.716;2022-07-29T05:58:30;17.30;91.90
21417;DHT22;10869;52.238;10.716;2022-07-29T06:00:55;17.30;92.70
21417;DHT22;10869;52.238;10.716;2022-07-29T06:03:25;17.30;92.80
21417;DHT22;10869;52.238;10.716;2022-07-29T06:05:51;17.30;93.50
21417;DHT22;10869;52.238;10.716;2022-07-29T06:08:16;17.30;93.40
21417;DHT22;10869;52.238;10.716;2022-07-29T06:14:04;17.30;92.60
21417;DHT22;10869;52.238;10.716;2022-07-29T06:16:30;17.30;93.00
21417;DHT22;10869;52.238;10.716;2022-07-29T06:18:55;17.30;93.20
21417;DHT22;10869;52.238;10.716;2022-07-29T06:21:21;17.30;93.50
21417;DHT22;10869;52.238;10.716;2022-07-29T06:23:47;17.30;93.60
21417;DHT22;10869;52.238;10.716;2022-07-29T06:26:13;17.40;93.80
21417;DHT22;10869;52.238;10.716;2022-07-29T06:28:39;17.40;93.70
21417;DHT22;10869;52.238;10.716;2022-07-29T06:31:05;17.40;93.60
21417;DHT22;10869;52.238;10.716;2022-07-29T06:33:31;17.40;93.70
21417;DHT22;10869;52.238;10.716;2022-07-29T06:35:57;17.40;94.10
21417;DHT22;10869;52.238;10.716;2022-07-29T06:38:22;17.40;93.80
21417;DHT22;10869;52.238;10.716;2022-07-29T06:40:48;17.50;93.90
21417;DHT22;10869;52.238;10.716;2022-07-29T06:43:32;17.60;93.70
21417;DHT22;10869;52.238;10.716;2022-07-29T06:46:06;17.70;93.20
21417;DHT22;10869;52.238;10.716;2022-07-29T06:48:33;17.80;92.70
21417;DHT22;10869;52.238;10.716;2022-07-29T06:50:59;17.90;93.10
21417;DHT22;10869;52.238;10.716;2022-07-29T06:53:26;18.00;93.10
21417;DHT22;10869;52.238;10.716;2022-07-29T06:55:52;18.10;92.70
21417;DHT22;10869;52.238;10.716;2022-07-29T06:58:28;18.20;92.90
21417;DHT22;10869;52.238;10.716;2022-07-29T07:03:56;18.30;92.60
21417;DHT22;10869;52.238;10.716;2022-07-29T07:06:22;18.30;92.70
21417;DHT22;10869;52.238;10.716;2022-07-29T07:11:58;18.10;92.50
21417;DHT22;10869;52.238;10.716;2022-07-29T07:14:24;18.20;92.60
21417;DHT22;10869;52.238;10.716;2022-07-29T07:16:51;18.40;92.90
21417;DHT22;10869;52.238;10.716;2022-07-29T07:19:17;18.70;92.20
21417;DHT22;10869;52.238;10.716;2022-07-29T07:21:44;19.10;92.10
21417;DHT22;10869;52.238;10.716;2022-07-29T07:24:10;19.40;90.70
21417;DHT22;10869;52.238;10.716;2022-07-29T07:26:36;19.40;89.70
21417;DHT22;10869;52.238;10.716;2022-07-29T07:29:01;19.70;90.50
21417;DHT22;10869;52.238;10.716;2022-07-29T07:31:27;19.90;89.80
21417;DHT22;10869;52.238;10.716;2022-07-29T07:33:53;20.20;90.10
21417;DHT22;10869;52.238;10.716;2022-07-29T07:36:19;20.50;89.30
21417;DHT22;10869;52.238;10.716;2022-07-29T07:38:45;20.50;89.50
21417;DHT22;10869;52.238;10.716;2022-07-29T07:41:10;20.60;89.00
21417;DHT22;10869;52.238;10.716;2022-07-29T07:43:36;20.70;89.40
21417;DHT22;10869;52.238;10.716;2022-07-29T07:46:02;20.70;89.80
21417;DHT22;10869;52.238;10.716;2022-07-29T07:48:27;20.80;87.60
21417;DHT22;10869;52.238;10.716;2022-07-29T07:51:06;20.70;87.50
21417;DHT22;10869;52.238;10.716;2022-07-29T07:53:33;20.70;86.90
21417;DHT22;10869;52.238;10.716;2022-07-29T07:55:59;20.80;86.20
21417;DHT22;10869;52.238;10.716;2022-07-29T07:58:25;20.80;86.90
21417;DHT22;10869;52.238;10.716;2022-07-29T08:00:50;20.90;88.60
21417;DHT22;10869;52.238;10.716;2022-07-29T08:03:19;21.00;88.50
21417;DHT22;10869;52.238;10.716;2022-07-29T08:05:45;21.00;87.30
21417;DHT22;10869;52.238;10.716;2022-07-29T08:08:11;21.10;87.70
21417;DHT22;10869;52.238;10.716;2022-07-29T08:10:40;21.30;88.40
21417;DHT22;10869;52.238;10.716;2022-07-29T08:13:19;21.50;87.70
21417;DHT22;10869;52.238;10.716;2022-07-29T08:16:02;21.80;88.90
21417;DHT22;10869;52.238;10.716;2022-07-29T08:21:26;22.10;86.80
21417;DHT22;10869;52.238;10.716;2022-07-29T08:23:52;22.20;84.90
21417;DHT22;10869;52.238;10.716;2022-07-29T08:26:21;22.10;83.40
21417;DHT22;10869;52.238;10.716;2022-07-29T08:28:49;22.30;83.00
21417;DHT22;10869;52.238;10.716;2022-07-29T08:34:25;22.50;83.50
21417;DHT22;10869;52.238;10.716;2022-07-29T08:36:51;22.50;81.50
21417;DHT22;10869;52.238;10.716;2022-07-29T08:39:33;22.40;81.60
21417;DHT22;10869;52.238;10.716;2022-07-29T08:42:03;22.70;83.50
21417;DHT22;10869;52.238;10.716;2022-07-29T08:44:54;22.90;82.30
21417;DHT22;10869;52.238;10.716;2022-07-29T08:47:22;22.80;81.30
21417;DHT22;10869;52.238;10.716;2022-07-29T08:50:21;22.60;79.70
21417;DHT22;10869;52.238;10.716;2022-07-29T08:52:47;22.40;81.40
21417;DHT22;10869;52.238;10.716;2022-07-29T08:55:15;22.60;81.90
21417;DHT22;10869;52.238;10.716;2022-07-29T08:57:51;22.70;83.30
21417;DHT22;10869;52.238;10.716;2022-07-29T09:03:30;23.00;82.60
21417;DHT22;10869;52.238;10.716;2022-07-29T09:06:00;23.20;83.00
21417;DHT22;10869;52.238;10.716;2022-07-29T09:08:27;23.80;80.40
21417;DHT22;10869;52.238;10.716;2022-07-29T09:10:55;24.30;79.20
21417;DHT22;10869;52.238;10.716;2022-07-29T09:13:25;24.30;76.40
21417;DHT22;10869;52.238;10.716;2022-07-29T09:15:51;24.30;76.90
21417;DHT22;10869;52.238;10.716;2022-07-29T09:18:47;24.30;76.90
21417;DHT22;10869;52.238;10.716;2022-07-29T09:21:15;24.50;77.90
21417;DHT22;10869;52.238;10.716;2022-07-29T09:24:19;24.50;79.50
21417;DHT22;10869;52.238;10.716;2022-07-29T09:26:45;24.80;78.90
21417;DHT22;10869;52.238;10.716;2022-07-29T09:44:45;24.90;76.90
21417;DHT22;10869;52.238;10.716;2022-07-29T09:47:12;27.30;72.40
21417;DHT22;10869;52.238;10.716;2022-07-29T09:53:00;27.00;71.50
21417;DHT22;10869;52.238;10.716;2022-07-29T09:58:47;27.20;72.20
21417;DHT22;10869;52.238;10.716;2022-07-29T10:01:13;27.20;70.50
21417;DHT22;10869;52.238;10.716;2022-07-29T10:03:53;27.30;70.10
21417;DHT22;10869;52.238;10.716;2022-07-29T10:06:18;27.50;72.60
21417;DHT22;10869;52.238;10.716;2022-07-29T10:08:44;27.70;69.50
21417;DHT22;10869;52.238;10.716;2022-07-29T10:11:17;27.80;67.60
21417;DHT22;10869;52.238;10.716;2022-07-29T10:13:45;27.90;69.30
21417;DHT22;10869;52.238;10.716;2022-07-29T10:16:13;27.80;68.60
21417;DHT22;10869;52.238;10.716;2022-07-29T10:18:43;27.50;69.70
21417;DHT22;10869;52.238;10.716;2022-07-29T10:21:09;27.10;69.30
21417;DHT22;10869;52.238;10.716;2022-07-29T10:23:36;26.80;68.80
21417;DHT22;10869;52.238;10.716;2022-07-29T10:26:03;26.80;68.70
21417;DHT22;10869;52.238;10.716;2022-07-29T10:28:31;26.90;69.00
21417;DHT22;10869;52.238;10.716;2022-07-29T10:31:06;26.80;66.70
21417;DHT22;10869;52.238;10.716;2022-07-29T10:36:54;26.60;68.90
21417;DHT22;10869;52.238;10.716;2022-07-29T10:39:45;26.70;70.30
21417;DHT22;10869;52.238;10.716;2022-07-29T10:42:23;26.70;69.10
21417;DHT22;10869;52.238;10.716;2022-07-29T10:44:51;26.60;70.30
21417;DHT22;10869;52.238;10.716;2022-07-29T10:47:25;26.50;71.90
21417;DHT22;10869;52.238;10.716;2022-07-29T10:50:02;26.50;69.70
21417;DHT22;10869;52.238;10.716;2022-07-29T10:55:38;26.30;71.00
21417;DHT22;10869;52.238;10.716;2022-07-29T10:58:17;26.10;70.70
21417;DHT22;10869;52.238;10.716;2022-07-29T11:00:45;26.20;72.00
21417;DHT22;10869;52.238;10.716;2022-07-29T11:06:21;26.10;70.90
21417;DHT22;10869;52.238;10.716;2022-07-29T11:09:18;26.10;70.80
21417;DHT22;10869;52.238;10.716;2022-07-29T11:11:57;26.00;66.30
21417;DHT22;10869;52.238;10.716;2022-07-29T11:17:20;25.80;63.40
21417;DHT22;10869;52.238;10.716;2022-07-29T11:19:53;25.80;65.80
21417;DHT22;10869;52.238;10.716;2022-07-29T11:22:38;25.70;63.00
21417;DHT22;10869;52.238;10.716;2022-07-29T11:25:15;25.60;65.90
21417;DHT22;10869;52.238;10.716;2022-07-29T11:27:42;25.60;65.70
21417;DHT22;10869;52.238;10.716;2022-07-29T11:30:08;25.60;65.80
21417;DHT22;10869;52.238;10.716;2022-07-29T11:32:43;25.50;65.30
21417;DHT22;10869;52.238;10.716;2022-07-29T11:35:20;25.50;64.50
21417;DHT22;10869;52.238;10.716;2022-07-29T11:44:17;25.40;64.40
21417;DHT22;10869;52.238;10.716;2022-07-29T11:46:50;25.30;63.90
21417;DHT22;10869;52.238;10.716;2022-07-29T11:49:24;25.20;64.70
21417;DHT22;10869;52.238;10.716;2022-07-29T11:51:54;25.20;65.70
21417;DHT22;10869;52.238;10.716;2022-07-29T12:00:38;25.30;64.80
21417;DHT22;10869;52.238;10.716;2022-07-29T12:03:07;25.20;66.00
21417;DHT22;10869;52.238;10.716;2022-07-29T12:08:55;25.20;66.90
21417;DHT22;10869;52.238;10.716;2022-07-29T12:11:21;25.20;65.60
21417;DHT22;10869;52.238;10.716;2022-07-29T12:13:46;25.20;65.90
21417;DHT22;10869;52.238;10.716;2022-07-29T12:19:42;25.10;64.40
21417;DHT22;10869;52.238;10.716;2022-07-29T12:22:08;25.10;65.40
21417;DHT22;10869;52.238;10.716;2022-07-29T12:24:44;25.00;66.20
21417;DHT22;10869;52.238;10.716;2022-07-29T12:30:37;25.00;65.30
21417;DHT22;10869;52.238;10.716;2022-07-29T12:33:26;25.00;65.80
21417;DHT22;10869;52.238;10.716;2022-07-29T12:35:58;25.00;65.90
21417;DHT22;10869;52.238;10.716;2022-07-29T12:38:25;24.90;65.20
21417;DHT22;10869;52.238;10.716;2022-07-29T12:40:53;24.90;65.00
21417;DHT22;10869;52.238;10.716;2022-07-29T12:43:20;25.00;65.00
21417;DHT22;10869;52.238;10.716;2022-07-29T12:45:49;24.90;66.30
21417;DHT22;10869;52.238;10.716;2022-07-29T12:48:16;24.90;66.40
21417;DHT22;10869;52.238;10.716;2022-07-29T12:50:56;24.90;65.90
21417;DHT22;10869;52.238;10.716;2022-07-29T12:53:22;24.90;65.50
21417;DHT22;10869;52.238;10.716;2022-07-29T12:55:53;24.90;66.70
21417;DHT22;10869;52.238;10.716;2022-07-29T12:58:46;24.90;67.50
21417;DHT22;10869;52.238;10.716;2022-07-29T13:01:14;24.80;66.90
21417;DHT22;10869;52.238;10.716;2022-07-29T13:06:29;24.80;66.00
21417;DHT22;10869;52.238;10.716;2022-07-29T13:12:18;24.80;68.70
21417;DHT22;10869;52.238;10.716;2022-07-29T13:14:46;24.80;67.70
21417;DHT22;10869;52.238;10.716;2022-07-29T13:17:15;24.80;67.40
21417;DHT22;10869;52.238;10.716;2022-07-29T13:19:49;24.80;67.80
21417;DHT22;10869;52.238;10.716;2022-07-29T13:22:21;24.90;66.90
21417;DHT22;10869;52.238;10.716;2022-07-29T13:25:01;25.00;66.40
21417;DHT22;10869;52.238;10.716;2022-07-29T13:27:33;25.10;68.20
21417;DHT22;10869;52.238;10.716;2022-07-29T13:30:00;25.20;69.70
21417;DHT22;10869;52.238;10.716;2022-07-29T13:32:28;25.20;70.80
21417;DHT22;10869;52.238;10.716;2022-07-29T13:35:02;25.20;68.20
21417;DHT22;10869;52.238;10.716;2022-07-29T13:37:28;25.30;68.20
21417;DHT22;10869;52.238;10.716;2022-07-29T13:39:58;25.30;68.60
21417;DHT22;10869;52.238;10.716;2022-07-29T13:42:25;25.40;70.00
21417;DHT22;10869;52.238;10.716;2022-07-29T13:44:51;25.40;66.50
21417;DHT22;10869;52.238;10.716;2022-07-29T13:47:18;25.50;66.00
21417;DHT22;10869;52.238;10.716;2022-07-29T13:49:44;25.70;65.30
21417;DHT22;10869;52.238;10.716;2022-07-29T13:52:10;25.80;66.90
21417;DHT22;10869;52.238;10.716;2022-07-29T13:54:36;26.00;67.10
21417;DHT22;10869;52.238;10.716;2022-07-29T13:57:03;26.20;65.80
21417;DHT22;10869;52.238;10.716;2022-07-29T13:59:29;26.30;66.70
21417;DHT22;10869;52.238;10.716;2022-07-29T14:01:55;26.40;65.40
21417;DHT22;10869;52.238;10.716;2022-07-29T14:09:32;26.40;66.20
21417;DHT22;10869;52.238;10.716;2022-07-29T14:11:57;26.40;68.40
21417;DHT22;10869;52.238;10.716;2022-07-29T14:14:23;26.50;65.50
21417;DHT22;10869;52.238;10.716;2022-07-29T14:16:49;26.50;66.50
21417;DHT22;10869;52.238;10.716;2022-07-29T14:19:15;26.60;66.90
21417;DHT22;10869;52.238;10.716;2022-07-29T14:25:03;26.60;65.80
21417;DHT22;10869;52.238;10.716;2022-07-29T14:27:29;26.70;66.80
21417;DHT22;10869;52.238;10.716;2022-07-29T14:29:54;26.80;66.60
21417;DHT22;10869;52.238;10.716;2022-07-29T14:32:20;26.90;64.90
21417;DHT22;10869;52.238;10.716;2022-07-29T14:34:46;27.00;63.40
21417;DHT22;10869;52.238;10.716;2022-07-29T14:37:12;27.00;65.30
21417;DHT22;10869;52.238;10.716;2022-07-29T14:43:00;26.90;64.20
21417;DHT22;10869;52.238;10.716;2022-07-29T14:45:26;27.10;63.80
21417;DHT22;10869;52.238;10.716;2022-07-29T14:51:15;26.90;66.20
21417;DHT22;10869;52.238;10.716;2022-07-29T14:53:41;26.70;64.80
21417;DHT22;10869;52.238;10.716;2022-07-29T14:56:07;26.60;67.60
21417;DHT22;10869;52.238;10.716;2022-07-29T15:01:54;26.40;66.70
21417;DHT22;10869;52.238;10.716;2022-07-29T15:04:20;26.40;67.00
21417;DHT22;10869;52.238;10.716;2022-07-29T15:06:46;26.20;67.40
21417;DHT22;10869;52.238;10.716;2022-07-29T15:12:33;26.20;67.00
21417;DHT22;10869;52.238;10.716;2022-07-29T15:18:21;26.10;65.50
21417;DHT22;10869;52.238;10.716;2022-07-29T15:20:47;26.00;66.40
21417;DHT22;10869;52.238;10.716;2022-07-29T15:23:13;26.00;65.80
21417;DHT22;10869;52.238;10.716;2022-07-29T15:25:39;25.90;65.60
21417;DHT22;10869;52.238;10.716;2022-07-29T15:28:05;25.90;65.60
21417;DHT22;10869;52.238;10.716;2022-07-29T15:30:35;25.90;65.40
21417;DHT22;10869;52.238;10.716;2022-07-29T15:33:06;25.80;67.30
21417;DHT22;10869;52.238;10.716;2022-07-29T15:35:32;25.80;66.10
21417;DHT22;10869;52.238;10.716;2022-07-29T15:37:58;25.80;67.50
21417;DHT22;10869;52.238;10.716;2022-07-29T15:40:23;25.70;66.90
21417;DHT22;10869;52.238;10.716;2022-07-29T15:42:49;25.70;68.30
21417;DHT22;10869;52.238;10.716;2022-07-29T15:45:15;25.70;67.60
21417;DHT22;10869;52.238;10.716;2022-07-29T15:47:40;25.60;67.20
21417;DHT22;10869;52.238;10.716;2022-07-29T15:50:06;25.60;67.30
21417;DHT22;10869;52.238;10.716;2022-07-29T15:53:08;25.50;68.20
21417;DHT22;10869;52.238;10.716;2022-07-29T15:58:56;25.40;68.00
21417;DHT22;10869;52.238;10.716;2022-07-29T16:01:22;25.30;68.80
21417;DHT22;10869;52.238;10.716;2022-07-29T16:03:48;25.30;68.30
21417;DHT22;10869;52.238;10.716;2022-07-29T16:06:32;25.30;69.10
21417;DHT22;10869;52.238;10.716;2022-07-29T16:08:58;25.30;70.00
21417;DHT22;10869;52.238;10.716;2022-07-29T16:14:43;25.30;69.30
21417;DHT22;10869;52.238;10.716;2022-07-29T16:20:31;25.30;70.10
21417;DHT22;10869;52.238;10.716;2022-07-29T16:26:19;25.10;69.20
21417;DHT22;10869;52.238;10.716;2022-07-29T16:32:17;25.10;71.10
21417;DHT22;10869;52.238;10.716;2022-07-29T16:34:56;25.10;70.20
21417;DHT22;10869;52.238;10.716;2022-07-29T16:40:37;25.10;69.80
21417;DHT22;10869;52.238;10.716;2022-07-29T16:43:08;25.10;70.50
21417;DHT22;10869;52.238;10.716;2022-07-29T16:45:48;25.10;70.20
21417;DHT22;10869;52.238;10.716;2022-07-29T16:51:33;25.10;69.80
21417;DHT22;10869;52.238;10.716;2022-07-29T16:53:59;25.10;70.30
21417;DHT22;10869;52.238;10.716;2022-07-29T16:56:24;25.10;71.50
21417;DHT22;10869;52.238;10.716;2022-07-29T16:58:50;25.20;69.90
21417;DHT22;10869;52.238;10.716;2022-07-29T17:01:48;25.20;69.60
21417;DHT22;10869;52.238;10.716;2022-07-29T17:07:14;25.30;70.20
21417;DHT22;10869;52.238;10.716;2022-07-29T17:09:40;25.20;69.50
21417;DHT22;10869;52.238;10.716;2022-07-29T17:12:06;25.10;69.30
21417;DHT22;10869;52.238;10.716;2022-07-29T17:14:32;25.10;69.70
21417;DHT22;10869;52.238;10.716;2022-07-29T17:16:59;25.00;71.00
21417;DHT22;10869;52.238;10.716;2022-07-29T17:19:26;24.90;70.90
21417;DHT22;10869;52.238;10.716;2022-07-29T17:21:54;24.80;70.40
21417;DHT22;10869;52.238;10.716;2022-07-29T17:24:20;24.70;71.00
21417;DHT22;10869;52.238;10.716;2022-07-29T17:26:45;24.60;71.20
21417;DHT22;10869;52.238;10.716;2022-07-29T17:29:14;24.50;71.60
21417;DHT22;10869;52.238;10.716;2022-07-29T17:31:41;24.50;71.70
21417;DHT22;10869;52.238;10.716;2022-07-29T17:34:07;24.40;73.00
21417;DHT22;10869;52.238;10.716;2022-07-29T17:36:34;24.30;74.10
21417;DHT22;10869;52.238;10.716;2022-07-29T17:42:13;24.10;74.50
21417;DHT22;10869;52.238;10.716;2022-07-29T17:44:50;24.10;75.30
21417;DHT22;10869;52.238;10.716;2022-07-29T17:47:15;24.00;75.30
21417;DHT22;10869;52.238;10.716;2022-07-29T17:53:03;23.80;76.30
21417;DHT22;10869;52.238;10.716;2022-07-29T17:55:32;23.80;76.00
21417;DHT22;10869;52.238;10.716;2022-07-29T17:58:32;23.70;76.10
21417;DHT22;10869;52.238;10.716;2022-07-29T18:01:19;23.60;75.80
21417;DHT22;10869;52.238;10.716;2022-07-29T18:03:50;23.50;76.50
21417;DHT22;10869;52.238;10.716;2022-07-29T18:06:20;23.50;77.40
21417;DHT22;10869;52.238;10.716;2022-07-29T18:08:46;23.30;77.00
21417;DHT22;10869;52.238;10.716;2022-07-29T18:11:18;23.30;77.70
21417;DHT22;10869;52.238;10.716;2022-07-29T18:13:54;23.20;77.10
21417;DHT22;10869;52.238;10.716;2022-07-29T18:16:20;23.10;77.30
21417;DHT22;10869;52.238;10.716;2022-07-29T18:18:46;23.10;77.60
21417;DHT22;10869;52.238;10.716;2022-07-29T18:21:12;23.00;78.40
21417;DHT22;10869;52.238;10.716;2022-07-29T18:23:38;22.90;79.40
21417;DHT22;10869;52.238;10.716;2022-07-29T18:26:04;22.90;80.40
21417;DHT22;10869;52.238;10.716;2022-07-29T18:28:32;22.80;80.50
21417;DHT22;10869;52.238;10.716;2022-07-29T18:31:01;22.70;79.90
21417;DHT22;10869;52.238;10.716;2022-07-29T18:33:27;22.70;79.80
21417;DHT22;10869;52.238;10.716;2022-07-29T18:35:57;22.60;80.90
21417;DHT22;10869;52.238;10.716;2022-07-29T18:38:22;22.60;81.00
21417;DHT22;10869;52.238;10.716;2022-07-29T18:40:51;22.50;81.50
21417;DHT22;10869;52.238;10.716;2022-07-29T18:43:19;22.40;81.80
21417;DHT22;10869;52.238;10.716;2022-07-29T18:45:45;22.40;81.60
21417;DHT22;10869;52.238;10.716;2022-07-29T18:48:20;22.30;81.20
21417;DHT22;10869;52.238;10.716;2022-07-29T18:50:48;22.30;82.20
21417;DHT22;10869;52.238;10.716;2022-07-29T18:53:14;22.20;82.10
21417;DHT22;10869;52.238;10.716;2022-07-29T18:55:43;22.10;81.70
21417;DHT22;10869;52.238;10.716;2022-07-29T18:58:14;22.10;82.00
21417;DHT22;10869;52.238;10.716;2022-07-29T19:00:40;22.00;82.70
21417;DHT22;10869;52.238;10.716;2022-07-29T19:03:06;21.90;82.70
21417;DHT22;10869;52.238;10.716;2022-07-29T19:05:35;21.90;83.20
21417;DHT22;10869;52.238;10.716;2022-07-29T19:08:00;21.80;83.20
21417;DHT22;10869;52.238;10.716;2022-07-29T19:10:26;21.80;82.00
21417;DHT22;10869;52.238;10.716;2022-07-29T19:12:54;21.80;81.50
21417;DHT22;10869;52.238;10.716;2022-07-29T19:15:24;21.70;81.60
21417;DHT22;10869;52.238;10.716;2022-07-29T19:18:04;21.70;81.50
21417;DHT22;10869;52.238;10.716;2022-07-29T19:23:55;21.60;80.60
21417;DHT22;10869;52.238;10.716;2022-07-29T19:26:21;21.50;80.90
21417;DHT22;10869;52.238;10.716;2022-07-29T19:29:02;21.50;80.90
21417;DHT22;10869;52.238;10.716;2022-07-29T19:31:37;21.50;81.00
21417;DHT22;10869;52.238;10.716;2022-07-29T19:34:27;21.50;80.40
21417;DHT22;10869;52.238;10.716;2022-07-29T19:36:53;21.40;79.60
21417;DHT22;10869;52.238;10.716;2022-07-29T19:39:18;21.40;79.80
21417;DHT22;10869;52.238;10.716;2022-07-29T19:41:44;21.40;79.80
21417;DHT22;10869;52.238;10.716;2022-07-29T19:44:13;21.40;78.90
21417;DHT22;10869;52.238;10.716;2022-07-29T19:46:44;21.40;78.80
21417;DHT22;10869;52.238;10.716;2022-07-29T19:49:10;21.40;78.70
21417;DHT22;10869;52.238;10.716;2022-07-29T19:51:41;21.40;78.50
21417;DHT22;10869;52.238;10.716;2022-07-29T19:54:11;21.40;78.40
21417;DHT22;10869;52.238;10.716;2022-07-29T19:56:39;21.40;78.70
21417;DHT22;10869;52.238;10.716;2022-07-29T19:59:06;21.40;78.40
21417;DHT22;10869;52.238;10.716;2022-07-29T20:01:31;21.40;78.30
21417;DHT22;10869;52.238;10.716;2022-07-29T20:03:59;21.40;78.20
21417;DHT22;10869;52.238;10.716;2022-07-29T20:06:25;21.40;78.10
21417;DHT22;10869;52.238;10.716;2022-07-29T20:08:54;21.40;78.10
21417;DHT22;10869;52.238;10.716;2022-07-29T20:11:23;21.40;78.10
21417;DHT22;10869;52.238;10.716;2022-07-29T20:13:52;21.40;78.00
21417;DHT22;10869;52.238;10.716;2022-07-29T20:16:24;21.50;78.00
21417;DHT22;10869;52.238;10.716;2022-07-29T20:18:52;21.50;78.00
21417;DHT22;10869;52.238;10.716;2022-07-29T20:21:21;21.50;77.90
21417;DHT22;10869;52.238;10.716;2022-07-29T20:23:49;21.50;77.70
21417;DHT22;10869;52.238;10.716;2022-07-29T20:26:16;21.50;77.70
21417;DHT22;10869;52.238;10.716;2022-07-29T20:28:42;21.50;77.50
21417;DHT22;10869;52.238;10.716;2022-07-29T20:31:08;21.50;77.60
21417;DHT22;10869;52.238;10.716;2022-07-29T20:33:33;21.60;77.70
21417;DHT22;10869;52.238;10.716;2022-07-29T20:35:59;21.60;77.60
21417;DHT22;10869;52.238;10.716;2022-07-29T20:38:25;21.60;77.60
21417;DHT22;10869;52.238;10.716;2022-07-29T20:40:51;21.70;77.70
21417;DHT22;10869;52.238;10.716;2022-07-29T20:43:18;21.70;77.80
21417;DHT22;10869;52.238;10.716;2022-07-29T20:45:44;21.70;77.80
21417;DHT22;10869;52.238;10.716;2022-07-29T20:48:10;21.70;77.80
21417;DHT22;10869;52.238;10.716;2022-07-29T20:50:37;21.70;78.10
21417;DHT22;10869;52.238;10.716;2022-07-29T20:53:03;21.70;78.10
21417;DHT22;10869;52.238;10.716;2022-07-29T20:55:29;21.70;78.00
21417;DHT22;10869;52.238;10.716;2022-07-29T20:57:59;21.60;78.20
21417;DHT22;10869;52.238;10.716;2022-07-29T21:00:28;21.60;78.20
21417;DHT22;10869;52.238;10.716;2022-07-29T21:02:56;21.70;77.90